Terminal Aerodrome Forecast
Issued by NWS

Home | Current Version | Previous Version | Text Only | Print | Product List | Glossary On
Versions: 1 2 3 4 5 6 7 8 9 10 11 12 13 14 15 16 17 18
477
FTUS43 KIND 180520
TAFHUF
TAF
KHUF 180520Z 1806/1906 27009KT P6SM -DZ OVC015
     FM181100 29006KT P6SM OVC008
     FM181700 26005KT P6SM BKN010
     FM181800 25005KT P6SM SCT015
     FM190100 19004KT P6SM SCT130=

USA.gov is the U.S. government's official web portal to all federal, state and local government web resources and services.